createdAt,value
2023-02-22T00:00:48.887Z,3.90
2023-02-22T00:11:10.037Z,4.30
2023-02-22T00:16:21.178Z,5.00
2023-02-22T00:21:27.343Z,4.90
2023-02-22T00:26:35.261Z,4.70
2023-02-22T00:31:41.387Z,4.70
2023-02-22T00:36:49.021Z,4.10
2023-02-22T00:41:55.866Z,4.90
2023-02-22T00:47:02.078Z,4.90
2023-02-22T00:52:09.219Z,5.70
2023-02-22T00:57:17.611Z,5.00
2023-02-22T01:02:25.133Z,4.30
2023-02-22T01:07:31.188Z,4.40
2023-02-22T01:12:37.572Z,4.20
2023-02-22T01:17:44.129Z,4.60
2023-02-22T01:22:53.207Z,5.00
2023-02-22T01:28:00.987Z,4.50
2023-02-22T01:33:08.497Z,4.60
2023-02-22T01:38:15.093Z,4.40
2023-02-22T01:43:25.702Z,3.90
2023-02-22T01:48:38.694Z,4.40
2023-02-22T01:53:49.850Z,5.00
2023-02-22T01:58:59.308Z,4.60
2023-02-22T02:04:08.245Z,4.10
2023-02-22T02:09:31.369Z,3.90
2023-02-22T02:14:40.445Z,4.40
2023-02-22T02:19:55.906Z,4.80
2023-02-22T02:25:27.973Z,4.80
2023-02-22T02:30:50.433Z,4.00
2023-02-22T02:36:03.478Z,4.20
2023-02-22T02:41:16.177Z,4.40
2023-02-22T02:46:26.938Z,4.70
2023-02-22T02:51:38.032Z,5.20
2023-02-22T02:56:45.812Z,4.40
2023-02-22T03:02:04.841Z,4.10
2023-02-22T03:07:41.169Z,3.90
2023-02-22T03:12:58.533Z,3.90
2023-02-22T03:18:09.369Z,3.70
2023-02-22T03:23:25.465Z,4.10
2023-02-22T03:28:33.305Z,3.40
2023-02-22T03:33:45.277Z,3.40
2023-02-22T03:38:55.681Z,4.60
2023-02-22T03:44:05.587Z,4.40
2023-02-22T03:49:18.149Z,2.90
2023-02-22T03:54:24.948Z,2.50
2023-02-22T03:59:31.101Z,11.80
2023-02-22T04:04:36.824Z,23.90
2023-02-22T04:09:43.118Z,17.10
2023-02-22T04:14:49.222Z,14.30
2023-02-22T04:19:56.600Z,16.70
2023-02-22T04:25:05.093Z,28.40
2023-02-22T04:30:13.280Z,15.40
2023-02-22T04:35:20.339Z,8.10
2023-02-22T04:40:26.611Z,4.30
2023-02-22T04:45:32.755Z,3.20
2023-02-22T04:50:40.605Z,2.10
2023-02-22T04:55:47.089Z,2.20
2023-02-22T05:00:53.444Z,2.20
2023-02-22T05:05:59.965Z,3.50
2023-02-22T05:11:06.745Z,2.90
2023-02-22T05:16:13.631Z,2.50
2023-02-22T05:21:19.916Z,2.10
2023-02-22T05:26:26.111Z,2.10
2023-02-22T05:31:32.384Z,2.20
2023-02-22T05:36:38.438Z,2.20
2023-02-22T05:41:44.111Z,2.40
2023-02-22T05:46:50.253Z,2.20
2023-02-22T05:51:59.575Z,2.00
2023-02-22T05:57:05.944Z,2.90
2023-02-22T06:02:12.351Z,3.60
2023-02-22T06:07:18.982Z,3.30
2023-02-22T06:12:24.723Z,3.60
2023-02-22T06:17:30.735Z,3.00
2023-02-22T06:22:36.724Z,2.60
2023-02-22T06:27:42.676Z,2.30
2023-02-22T06:32:48.304Z,2.20
2023-02-22T06:37:54.590Z,2.50
2023-02-22T06:43:00.550Z,4.50
2023-02-22T06:48:06.927Z,4.60
2023-02-22T06:53:12.981Z,22.70
2023-02-22T06:58:18.977Z,18.00
2023-02-22T07:03:24.947Z,36.40
2023-02-22T07:08:31.460Z,55.90
2023-02-22T07:13:37.398Z,41.20
2023-02-22T07:18:43.460Z,31.50
2023-02-22T07:23:55.184Z,9.30
2023-02-22T07:29:01.429Z,6.40
2023-02-22T07:34:07.167Z,6.10
2023-02-22T07:39:13.472Z,5.40
2023-02-22T07:44:20.062Z,4.90
2023-02-22T07:49:26.341Z,7.10
2023-02-22T07:54:32.619Z,6.70
2023-02-22T07:59:39.060Z,6.50
2023-02-22T08:04:45.297Z,4.70
2023-02-22T08:09:51.575Z,5.50
2023-02-22T08:14:57.839Z,3.70
2023-02-22T08:20:05.105Z,6.20
2023-02-22T08:25:11.631Z,3.90
2023-02-22T08:30:21.322Z,8.70
2023-02-22T08:35:29.661Z,4.10
2023-02-22T08:40:37.288Z,3.80
2023-02-22T08:45:44.480Z,4.20
2023-02-22T08:50:52.016Z,3.80
2023-02-22T08:55:59.477Z,3.20
2023-02-22T09:01:06.901Z,4.00
2023-02-22T09:06:13.266Z,4.10
2023-02-22T09:11:20.094Z,3.40
2023-02-22T09:16:26.435Z,3.30
2023-02-22T09:21:33.082Z,4.80
2023-02-22T09:26:40.704Z,4.20
2023-02-22T09:31:47.255Z,5.00
2023-02-22T09:36:53.377Z,6.10
2023-02-22T09:42:10.619Z,5.10
2023-02-22T09:47:19.976Z,6.00
2023-02-22T09:52:31.425Z,6.10
2023-02-22T09:57:43.424Z,6.40
2023-02-22T10:03:01.345Z,6.90
2023-02-22T10:08:13.076Z,7.40
2023-02-22T10:13:29.416Z,7.80
2023-02-22T10:18:56.776Z,7.60
2023-02-22T10:24:13.488Z,6.00
2023-02-22T10:29:27.935Z,6.40
2023-02-22T10:34:40.200Z,6.90
2023-02-22T10:39:48.737Z,8.00
2023-02-22T10:44:54.753Z,7.60
2023-02-22T10:50:02.034Z,7.80
2023-02-22T10:55:15.547Z,13.10
2023-02-22T11:00:30.820Z,9.00
2023-02-22T11:05:39.653Z,6.30
2023-02-22T11:10:45.982Z,7.20
2023-02-22T11:15:52.692Z,7.20
2023-02-22T11:21:04.891Z,6.60
2023-02-22T11:26:14.579Z,9.60
2023-02-22T11:31:26.026Z,7.20
2023-02-22T11:36:37.811Z,7.30
2023-02-22T11:41:45.339Z,6.00
2023-02-22T11:46:56.810Z,7.50
2023-02-22T11:52:17.410Z,5.60
2023-02-22T11:57:46.667Z,6.90
2023-02-22T12:03:29.718Z,6.20
2023-02-22T12:08:48.431Z,5.80
2023-02-22T12:14:09.530Z,7.40
2023-02-22T12:19:25.718Z,5.60
2023-02-22T12:24:40.046Z,17.00
2023-02-22T12:29:51.502Z,6.50
2023-02-22T12:40:10.309Z,7.90
2023-02-22T12:45:27.848Z,5.80
2023-02-22T12:50:35.204Z,4.90
2023-02-22T12:55:47.428Z,4.20
2023-02-22T13:01:01.531Z,6.10
2023-02-22T13:06:21.987Z,6.90
2023-02-22T13:11:37.493Z,8.30
2023-02-22T13:16:52.683Z,7.80
2023-02-22T13:22:06.896Z,6.50
2023-02-22T13:27:19.377Z,5.70
2023-02-22T13:32:38.368Z,9.20
2023-02-22T13:38:00.858Z,12.90
2023-02-22T13:43:31.141Z,7.00
2023-02-22T13:48:56.903Z,8.50
2023-02-22T13:54:07.872Z,7.10
2023-02-22T14:04:46.805Z,10.40
2023-02-22T14:09:56.214Z,11.40
2023-02-22T14:15:32.959Z,32.00
2023-02-22T14:20:40.573Z,14.10
2023-02-22T14:25:49.491Z,17.10
2023-02-22T14:31:08.638Z,9.90
2023-02-22T14:36:17.043Z,6.20
2023-02-22T14:41:27.841Z,5.30
2023-02-22T14:46:40.573Z,5.40
2023-02-22T14:51:59.793Z,6.20
2023-02-22T14:57:14.843Z,7.30
2023-02-22T15:02:25.980Z,7.60
2023-02-22T15:07:35.822Z,7.90
2023-02-22T15:12:41.991Z,7.50
2023-02-22T15:17:48.231Z,6.80
2023-02-22T15:23:00.479Z,10.30
2023-02-22T15:28:09.573Z,10.60
2023-02-22T15:33:24.399Z,7.80
2023-02-22T15:38:31.378Z,13.90
2023-02-22T15:43:38.410Z,11.00
2023-02-22T15:48:44.755Z,10.20
2023-02-22T15:53:52.891Z,11.10
2023-02-22T15:59:08.917Z,10.40
2023-02-22T16:04:21.638Z,13.30
2023-02-22T16:09:30.303Z,13.10
2023-02-22T16:14:44.989Z,15.70
2023-02-22T16:19:51.169Z,11.30
2023-02-22T16:25:24.863Z,12.20
2023-02-22T16:30:34.032Z,14.50
2023-02-22T16:35:40.920Z,18.40
2023-02-22T16:40:54.575Z,16.10
2023-02-22T16:46:04.447Z,19.30
2023-02-22T16:51:16.940Z,22.60
2023-02-22T16:56:29.666Z,20.60
2023-02-22T17:01:36.835Z,23.20
2023-02-22T17:06:42.815Z,22.30
2023-02-22T17:11:51.662Z,21.70
2023-02-22T17:16:58.472Z,24.80
2023-02-22T17:22:06.101Z,25.60
2023-02-22T17:27:11.912Z,28.80
2023-02-22T17:32:19.184Z,26.60
2023-02-22T17:37:25.770Z,25.50
2023-02-22T17:42:32.386Z,43.50
2023-02-22T17:47:38.884Z,38.10
2023-02-22T17:52:46.733Z,24.40
2023-02-22T17:58:00.719Z,25.60
2023-02-22T18:03:10.372Z,20.00
2023-02-22T18:08:18.842Z,16.50
2023-02-22T18:13:27.432Z,19.50
2023-02-22T18:18:34.182Z,22.00
2023-02-22T18:23:40.294Z,20.50
2023-02-22T18:28:48.938Z,19.40
2023-02-22T18:33:57.639Z,15.50
2023-02-22T18:39:04.429Z,25.20
2023-02-22T18:44:11.175Z,25.70
2023-02-22T18:49:17.733Z,21.30
2023-02-22T18:54:23.799Z,26.60
2023-02-22T18:59:29.919Z,30.60
2023-02-22T19:04:36.159Z,31.50
2023-02-22T19:09:42.799Z,26.60
2023-02-22T19:14:52.329Z,26.20
2023-02-22T19:19:59.627Z,25.20
2023-02-22T19:25:06.553Z,25.80
2023-02-22T19:35:26.717Z,24.70
2023-02-22T19:40:32.920Z,33.30
2023-02-22T19:45:41.738Z,36.20
2023-02-22T19:50:50.583Z,30.50
2023-02-22T19:55:56.770Z,25.60
2023-02-22T20:01:02.558Z,15.40
2023-02-22T20:06:09.170Z,19.10
2023-02-22T20:11:15.457Z,22.10
2023-02-22T20:16:21.479Z,36.30
2023-02-22T20:21:33.755Z,29.80
2023-02-22T20:26:41.065Z,27.60
2023-02-22T20:31:52.566Z,17.70
2023-02-22T20:36:59.139Z,16.70
2023-02-22T20:42:06.776Z,13.40
2023-02-22T20:47:12.742Z,15.00
2023-02-22T20:52:19.021Z,21.70
2023-02-22T20:57:25.254Z,18.80
2023-02-22T21:02:31.047Z,14.60
2023-02-22T21:07:37.184Z,14.70
2023-02-22T21:12:45.275Z,17.90
2023-02-22T21:17:54.228Z,19.20
2023-02-22T21:23:01.963Z,16.90
2023-02-22T21:28:08.041Z,13.70
2023-02-22T21:33:15.952Z,13.00
2023-02-22T21:38:22.177Z,23.30
2023-02-22T21:43:28.480Z,14.30
2023-02-22T21:48:34.942Z,14.20
2023-02-22T21:53:45.883Z,15.70
2023-02-22T21:58:59.530Z,13.10
2023-02-22T22:04:06.922Z,9.90
2023-02-22T22:09:18.291Z,8.70
2023-02-22T22:14:25.729Z,9.50
2023-02-22T22:19:35.111Z,9.00
2023-02-22T22:24:45.875Z,8.50
2023-02-22T22:29:57.171Z,8.70
2023-02-22T22:35:05.123Z,8.50
2023-02-22T22:40:15.850Z,8.00
2023-02-22T22:45:21.853Z,8.40
2023-02-22T22:50:28.857Z,7.90
2023-02-22T22:55:40.671Z,8.00
2023-02-22T23:00:47.261Z,7.60
2023-02-22T23:05:54.302Z,7.60
2023-02-22T23:11:05.935Z,9.50
2023-02-22T23:16:12.097Z,7.40
2023-02-22T23:21:19.143Z,7.90
2023-02-22T23:26:26.762Z,7.40
2023-02-22T23:31:33.174Z,8.00
2023-02-22T23:36:41.641Z,7.80
2023-02-22T23:41:49.578Z,8.00
2023-02-22T23:46:56.191Z,7.10
2023-02-22T23:52:03.056Z,6.90
2023-02-22T23:57:09.699Z,6.70
